Time;durP1;ratioP1;P1;durP2;ratioP2;P2;SDS_P1;SDS_P2;PMS_P1;PMS_P2;Temp;Humidity;BMP_temperature;BMP_pressure;BME280_temperature;BME280_humidity;BME280_pressure;Samples;Min_cycle;Max_cycle;Signal;HPM_P1;HPM_P2
2023/03/08 00:00:26;;;;;;;8.13;4.28;;;1.50;99.90;;;;;;5069008;28;20036;-66
2023/03/08 00:02:52;;;;;;;7.70;4.85;;;1.40;99.90;;;;;;5068674;28;20045;-65
2023/03/08 00:05:18;;;;;;;6.78;3.58;;;1.50;99.90;;;;;;5069102;28;20048;-65
2023/03/08 00:07:44;;;;;;;6.20;4.15;;;1.50;99.90;;;;;;5069064;28;20036;-66
2023/03/08 00:10:10;;;;;;;8.93;3.65;;;1.40;99.90;;;;;;5069194;28;20382;-65
2023/03/08 00:12:35;;;;;;;5.07;3.58;;;1.40;99.90;;;;;;5068580;28;20048;-65
2023/03/08 00:15:01;;;;;;;6.65;3.33;;;1.50;99.90;;;;;;5068661;28;20041;-65
2023/03/08 00:17:27;;;;;;;9.50;4.40;;;1.50;99.90;;;;;;5068400;28;20045;-65
2023/03/08 00:19:52;;;;;;;8.93;4.13;;;1.50;99.90;;;;;;5068781;28;20699;-66
2023/03/08 00:22:18;;;;;;;7.35;3.72;;;1.50;99.90;;;;;;5068774;28;20078;-65
2023/03/08 00:24:43;;;;;;;9.30;4.35;;;1.50;99.90;;;;;;5068456;28;20145;-66
2023/03/08 00:27:09;;;;;;;8.50;3.97;;;1.40;99.90;;;;;;5068620;28;20040;-65
2023/03/08 00:29:35;;;;;;;6.47;3.50;;;1.40;99.90;;;;;;5068025;28;20076;-66
2023/03/08 00:32:00;;;;;;;5.63;3.47;;;1.40;99.90;;;;;;5068879;28;20417;-66
2023/03/08 00:34:26;;;;;;;5.75;3.40;;;1.40;99.90;;;;;;5067067;28;20056;-65
2023/03/08 00:36:51;;;;;;;3.72;3.33;;;1.30;99.90;;;;;;5068787;28;20040;-65
2023/03/08 00:39:17;;;;;;;3.70;3.17;;;1.30;99.90;;;;;;5068565;28;20076;-65
2023/03/08 00:41:42;;;;;;;4.43;3.50;;;1.40;99.90;;;;;;5067621;28;20116;-65
2023/03/08 00:44:08;;;;;;;6.07;3.47;;;1.30;99.90;;;;;;5067406;28;20158;-66
2023/03/08 00:46:34;;;;;;;5.35;3.22;;;1.30;99.90;;;;;;5067272;28;20485;-65
2023/03/08 00:48:59;;;;;;;6.22;3.30;;;1.40;99.90;;;;;;5068495;28;20538;-65
2023/03/08 00:51:25;;;;;;;5.18;3.80;;;1.40;99.90;;;;;;5068535;28;20517;-65
2023/03/08 00:53:51;;;;;;;4.85;3.47;;;1.30;99.90;;;;;;5067289;28;20510;-65
2023/03/08 00:56:17;;;;;;;5.45;3.13;;;1.30;99.90;;;;;;5067702;28;20044;-65
2023/03/08 00:58:42;;;;;;;3.85;3.22;;;1.30;99.90;;;;;;5068490;28;20532;-65
2023/03/08 01:01:13;;;;;;;3.85;3.47;;;1.30;99.90;;;;;;5067877;28;20041;-65
2023/03/08 01:03:39;;;;;;;5.43;3.83;;;1.20;99.90;;;;;;5067511;28;20166;-66
2023/03/08 01:06:08;;;;;;;4.47;3.75;;;1.30;99.90;;;;;;5066006;28;20097;-65
2023/03/08 01:08:34;;;;;;;5.93;4.03;;;1.30;99.90;;;;;;5067562;28;20036;-65
2023/03/08 01:11:00;;;;;;;3.72;3.40;;;1.30;99.90;;;;;;5067464;28;20111;-65
2023/03/08 01:13:36;;;;;;;4.85;3.72;;;1.30;99.90;;;;;;5065901;28;20051;-65
2023/03/08 01:16:02;;;;;;;5.05;4.03;;;1.20;99.90;;;;;;5067701;28;20052;-66
2023/03/08 01:18:28;;;;;;;5.45;3.88;;;1.20;99.90;;;;;;5068100;28;20048;-65
2023/03/08 01:20:55;;;;;;;4.95;3.80;;;1.20;99.90;;;;;;5067492;28;20043;-65
2023/03/08 01:23:21;;;;;;;5.53;4.10;;;1.20;99.90;;;;;;5067565;28;20048;-65
2023/03/08 01:25:46;;;;;;;4.47;3.83;;;1.20;99.90;;;;;;5067778;28;20052;-65
2023/03/08 01:28:12;;;;;;;6.10;4.05;;;1.20;99.90;;;;;;5067691;28;20041;-65
2023/03/08 01:30:37;;;;;;;5.70;3.85;;;1.20;99.90;;;;;;5067791;28;20497;-65
2023/03/08 01:33:03;;;;;;;6.90;4.38;;;1.20;99.90;;;;;;5067819;28;20060;-65
2023/03/08 01:35:28;;;;;;;5.90;4.90;;;1.10;99.90;;;;;;5067475;28;20048;-65
2023/03/08 01:37:54;;;;;;;4.63;4.07;;;1.20;99.90;;;;;;5039217;28;20490;-65
2023/03/08 01:40:20;;;;;;;5.60;4.32;;;1.10;99.90;;;;;;5044498;28;20037;-65
2023/03/08 01:42:46;;;;;;;9.23;4.40;;;1.10;99.90;;;;;;5039215;28;20051;-65
2023/03/08 01:45:49;;;;;;;7.47;3.97;;;1.10;99.90;;;;;;5040611;28;20056;-65
2023/03/08 01:48:15;;;;;;;6.25;4.35;;;1.00;99.90;;;;;;5046002;28;20040;-65
2023/03/08 01:50:43;;;;;;;5.95;4.03;;;1.10;99.90;;;;;;5046361;28;20099;-64
2023/03/08 01:53:09;;;;;;;8.20;4.60;;;1.10;99.90;;;;;;5047138;28;20516;-65
2023/03/08 01:55:35;;;;;;;6.30;4.57;;;1.10;99.90;;;;;;5046512;28;20045;-66
2023/03/08 01:58:00;;;;;;;6.43;4.38;;;1.10;99.90;;;;;;5049850;28;20390;-65
2023/03/08 02:00:27;;;;;;;6.75;4.90;;;1.10;99.90;;;;;;5050471;28;20043;-66
2023/03/08 02:03:06;;;;;;;7.15;5.82;;;1.10;99.90;;;;;;5050519;28;20040;-65
2023/03/08 02:05:33;;;;;;;11.05;4.90;;;1.10;99.90;;;;;;5051286;28;20037;-65
2023/03/08 02:07:58;;;;;;;7.00;4.78;;;1.00;99.90;;;;;;5050929;28;20167;-65
2023/03/08 02:10:24;;;;;;;6.63;5.85;;;1.10;99.90;;;;;;5051319;28;20133;-65
2023/03/08 02:12:50;;;;;;;7.22;4.82;;;1.10;99.90;;;;;;5050975;28;20037;-65
2023/03/08 02:15:19;;;;;;;6.22;4.85;;;1.10;99.90;;;;;;5051217;28;20048;-65
2023/03/08 02:17:45;;;;;;;6.43;5.15;;;1.00;99.90;;;;;;5050872;28;20048;-65
2023/03/08 02:20:14;;;;;;;10.10;6.18;;;1.00;99.90;;;;;;5051363;28;20174;-65
2023/03/08 02:22:41;;;;;;;9.35;5.53;;;1.10;99.90;;;;;;5051282;28;20045;-65
2023/03/08 02:25:17;;;;;;;9.15;5.22;;;1.10;99.90;;;;;;5051081;28;20044;-65
2023/03/08 02:27:43;;;;;;;8.13;5.70;;;1.10;99.90;;;;;;5050899;28;20041;-65
2023/03/08 02:30:11;;;;;;;5.90;5.25;;;1.00;99.90;;;;;;5051280;28;20080;-65
2023/03/08 02:32:36;;;;;;;11.18;5.63;;;1.00;99.90;;;;;;5050602;28;20087;-65
2023/03/08 02:35:02;;;;;;;8.57;5.85;;;1.00;99.90;;;;;;5050577;28;20037;-65
2023/03/08 02:37:28;;;;;;;10.10;5.40;;;1.10;99.90;;;;;;5050373;28;20040;-66
2023/03/08 02:39:53;;;;;;;11.65;6.50;;;1.00;99.90;;;;;;5050438;28;20037;-65
2023/03/08 02:42:19;;;;;;;9.38;6.05;;;0.90;99.90;;;;;;5050726;28;20041;-65
2023/03/08 02:44:44;;;;;;;9.88;5.43;;;0.90;99.90;;;;;;5050234;28;20111;-65
2023/03/08 02:47:10;;;;;;;10.23;6.05;;;0.90;99.90;;;;;;5050365;28;20415;-65
2023/03/08 02:49:35;;;;;;;8.23;5.95;;;1.00;99.90;;;;;;5050715;28;20044;-66
2023/03/08 02:52:01;;;;;;;9.60;6.15;;;1.00;99.90;;;;;;5050876;28;20120;-65
2023/03/08 02:54:27;;;;;;;7.28;5.32;;;0.90;99.90;;;;;;5050184;28;20041;-65
2023/03/08 02:56:52;;;;;;;13.65;6.13;;;0.90;99.90;;;;;;5049653;28;20119;-65
2023/03/08 02:59:18;;;;;;;8.10;6.35;;;0.80;99.90;;;;;;5049999;28;20124;-65
2023/03/08 03:01:43;;;;;;;7.28;5.82;;;0.80;99.90;;;;;;5050606;28;20045;-66
2023/03/08 03:04:09;;;;;;;11.82;6.80;;;0.70;99.90;;;;;;5050256;28;20045;-65
2023/03/08 03:06:34;;;;;;;13.32;6.57;;;0.90;99.90;;;;;;5050586;28;20585;-66
2023/03/08 03:09:04;;;;;;;9.15;6.32;;;0.80;99.90;;;;;;5050186;28;20536;-65
2023/03/08 03:11:29;;;;;;;8.80;6.25;;;0.90;99.90;;;;;;5049910;28;20036;-65
2023/03/08 03:13:57;;;;;;;10.30;5.97;;;0.80;99.90;;;;;;5050077;28;20037;-65
2023/03/08 03:16:23;;;;;;;8.15;6.43;;;0.70;99.90;;;;;;5050315;28;20045;-65
2023/03/08 03:18:51;;;;;;;8.65;6.22;;;0.80;99.90;;;;;;5050121;28;20164;-65
2023/03/08 03:21:17;;;;;;;10.57;5.43;;;0.80;99.90;;;;;;5050364;28;20055;-65
2023/03/08 03:23:42;;;;;;;7.15;6.18;;;0.70;99.90;;;;;;5050216;28;20541;-65
2023/03/08 03:26:14;;;;;;;16.08;6.40;;;0.80;99.90;;;;;;5049818;28;20098;-65
2023/03/08 03:28:40;;;;;;;9.65;6.68;;;0.70;99.90;;;;;;5049860;28;20041;-65
2023/03/08 03:31:09;;;;;;;9.32;6.22;;;0.80;99.90;;;;;;5050035;28;20037;-65
2023/03/08 03:33:35;;;;;;;13.55;6.50;;;0.70;99.90;;;;;;5049953;28;20657;-66
2023/03/08 03:36:01;;;;;;;6.90;5.47;;;0.70;99.90;;;;;;5049804;28;20049;-65
2023/03/08 03:38:27;;;;;;;8.18;6.05;;;0.70;99.90;;;;;;5049212;28;20056;-65
2023/03/08 03:41:04;;;;;;;10.85;6.35;;;0.60;99.90;;;;;;5049633;28;20128;-65
2023/03/08 03:43:30;;;;;;;9.20;6.55;;;0.60;99.90;;;;;;5049789;28;20094;-65
2023/03/08 03:45:57;;;;;;;8.57;6.10;;;0.60;99.90;;;;;;5049583;28;20413;-65
2023/03/08 03:48:23;;;;;;;10.38;6.55;;;0.60;99.90;;;;;;5049180;28;20040;-65
2023/03/08 03:50:56;;;;;;;10.70;6.40;;;0.60;99.90;;;;;;5049015;28;20037;-65
2023/03/08 03:53:22;;;;;;;10.85;7.00;;;0.60;99.90;;;;;;5049233;28;20124;-65
2023/03/08 03:55:48;;;;;;;9.75;6.03;;;0.50;99.90;;;;;;5048732;28;20051;-65
2023/03/08 03:58:14;;;;;;;10.07;6.55;;;0.70;99.90;;;;;;5049083;28;20049;-65
2023/03/08 04:00:40;;;;;;;8.45;6.47;;;0.70;99.90;;;;;;5049558;28;20055;-65
2023/03/08 04:03:05;;;;;;;7.47;6.15;;;0.60;99.90;;;;;;5049229;28;20040;-65
2023/03/08 04:05:31;;;;;;;12.63;7.10;;;0.60;99.90;;;;;;5049052;28;20045;-65
2023/03/08 04:07:57;;;;;;;9.40;6.68;;;0.50;99.90;;;;;;5048597;28;20515;-65
2023/03/08 04:10:23;;;;;;;9.52;6.28;;;0.50;99.90;;;;;;5048932;28;20040;-65
2023/03/08 04:12:51;;;;;;;11.95;6.85;;;0.60;99.90;;;;;;5048886;28;20040;-65
2023/03/08 04:15:17;;;;;;;10.07;6.32;;;0.50;99.90;;;;;;5048583;28;20036;-65
2023/03/08 04:17:43;;;;;;;8.88;6.07;;;0.40;99.90;;;;;;5048549;28;20072;-65
2023/03/08 04:20:09;;;;;;;10.77;6.50;;;0.50;99.90;;;;;;5048513;28;20427;-65
2023/03/08 04:22:35;;;;;;;9.13;6.57;;;0.60;99.90;;;;;;5048864;28;20552;-65
2023/03/08 04:25:01;;;;;;;9.82;6.40;;;0.50;99.90;;;;;;5048373;28;20080;-65
2023/03/08 04:27:26;;;;;;;12.38;6.50;;;0.50;99.90;;;;;;5048353;28;20037;-65
2023/03/08 04:29:53;;;;;;;7.03;5.75;;;0.50;99.90;;;;;;5047749;28;20045;-65
2023/03/08 04:32:18;;;;;;;10.45;5.63;;;0.50;99.90;;;;;;5049010;28;20033;-65
2023/03/08 04:34:44;;;;;;;8.63;5.93;;;0.50;99.90;;;;;;5048422;28;20453;-66
2023/03/08 04:37:13;;;;;;;11.75;6.13;;;0.60;99.90;;;;;;5048747;28;20048;-65
2023/03/08 04:39:38;;;;;;;10.57;5.50;;;0.60;99.90;;;;;;5048628;28;20037;-65
2023/03/08 04:42:04;;;;;;;8.48;5.65;;;0.60;99.90;;;;;;5047658;28;20055;-66
2023/03/08 04:44:30;;;;;;;11.45;6.15;;;0.60;99.90;;;;;;5048225;28;20588;-66
2023/03/08 04:46:56;;;;;;;13.13;6.30;;;0.60;99.90;;;;;;5047155;28;20055;-65
2023/03/08 04:49:23;;;;;;;9.43;5.95;;;0.60;99.90;;;;;;5048470;28;20051;-66
2023/03/08 04:51:48;;;;;;;9.15;6.68;;;0.60;99.90;;;;;;5048507;28;20385;-66
2023/03/08 04:54:14;;;;;;;9.23;5.95;;;0.60;99.90;;;;;;5048277;28;20035;-66
2023/03/08 04:56:39;;;;;;;9.85;6.22;;;0.50;99.90;;;;;;5047916;28;20126;-65
2023/03/08 04:59:05;;;;;;;8.52;5.70;;;0.50;99.90;;;;;;5048003;28;20045;-66
2023/03/08 05:01:31;;;;;;;9.52;6.07;;;0.50;99.90;;;;;;5047854;28;20045;-65
2023/03/08 05:03:56;;;;;;;6.40;5.35;;;0.50;99.90;;;;;;5048131;28;20075;-65
2023/03/08 05:06:24;;;;;;;8.05;6.20;;;0.40;99.90;;;;;;5048267;28;20629;-66
2023/03/08 05:08:50;;;;;;;7.40;5.28;;;0.40;99.90;;;;;;5048372;28;20033;-66
2023/03/08 05:11:24;;;;;;;8.30;5.55;;;0.40;99.90;;;;;;5047929;28;20082;-65
2023/03/08 05:13:52;;;;;;;6.32;5.03;;;0.40;99.90;;;;;;5047706;28;20469;-65
2023/03/08 05:16:17;;;;;;;8.20;5.40;;;0.50;99.90;;;;;;5048109;28;20045;-65
2023/03/08 05:18:43;;;;;;;6.22;5.18;;;0.50;99.90;;;;;;5047879;28;20118;-65
2023/03/08 05:21:14;;;;;;;7.05;5.07;;;0.40;99.90;;;;;;5047405;28;20041;-65
2023/03/08 05:23:40;;;;;;;11.80;6.18;;;0.30;99.90;;;;;;5047935;28;20637;-66
2023/03/08 05:26:07;;;;;;;7.28;5.78;;;0.20;99.90;;;;;;5047757;28;20080;-66
2023/03/08 05:28:35;;;;;;;8.88;5.70;;;0.20;99.90;;;;;;5041910;28;20064;-65
2023/03/08 05:31:14;;;;;;;8.88;5.88;;;0.30;99.90;;;;;;5044645;28;20049;-65
2023/03/08 05:33:42;;;;;;;7.68;5.13;;;0.20;99.90;;;;;;5046238;28;20060;-65
2023/03/08 05:36:09;;;;;;;7.22;5.53;;;0.20;99.90;;;;;;5046891;28;20507;-64
2023/03/08 05:38:35;;;;;;;6.38;5.18;;;0.30;99.90;;;;;;5047766;28;20102;-65
2023/03/08 05:41:01;;;;;;;9.82;6.13;;;0.20;99.90;;;;;;5047462;28;20048;-65
2023/03/08 05:43:27;;;;;;;8.20;5.50;;;0.20;99.90;;;;;;5047853;28;20056;-65
2023/03/08 05:45:58;;;;;;;7.57;5.43;;;0.20;99.90;;;;;;5047184;28;20100;-65
2023/03/08 05:48:24;;;;;;;11.35;5.95;;;0.10;99.90;;;;;;5046741;28;20640;-65
2023/03/08 05:50:51;;;;;;;8.43;5.07;;;0.20;99.90;;;;;;5047779;28;20794;-65
2023/03/08 05:53:16;;;;;;;9.30;5.53;;;0.10;99.90;;;;;;5047203;28;20040;-65
2023/03/08 05:55:42;;;;;;;6.13;4.80;;;0.20;99.90;;;;;;5045676;28;20080;-65
2023/03/08 05:58:07;;;;;;;6.57;4.95;;;0.10;99.90;;;;;;5047595;28;20037;-65
2023/03/08 06:00:33;;;;;;;11.52;5.55;;;0.10;99.90;;;;;;5047548;28;20446;-65
2023/03/08 06:03:02;;;;;;;8.10;5.47;;;0.10;99.90;;;;;;5046327;28;20072;-65
2023/03/08 06:05:28;;;;;;;7.40;5.25;;;0.00;99.90;;;;;;5047113;28;20053;-65
2023/03/08 06:07:54;;;;;;;7.65;5.47;;;0.00;99.90;;;;;;5046101;28;20673;-65
2023/03/08 06:10:20;;;;;;;8.82;5.68;;;0.00;99.90;;;;;;5043424;28;20029;-65
2023/03/08 06:12:45;;;;;;;6.95;4.93;;;0.00;99.90;;;;;;5059245;28;20036;-65
2023/03/08 06:15:11;;;;;;;7.13;5.32;;;0.00;99.90;;;;;;5067262;28;20043;-65
2023/03/08 06:17:38;;;;;;;10.80;5.38;;;0.10;99.90;;;;;;5065973;28;20051;-65
2023/03/08 06:20:04;;;;;;;8.05;6.25;;;0.10;99.90;;;;;;5067025;28;20374;-65
2023/03/08 06:22:30;;;;;;;11.07;5.70;;;0.10;99.90;;;;;;5053641;28;20029;-65
2023/03/08 06:24:55;;;;;;;9.40;5.30;;;0.10;99.90;;;;;;5046842;28;20406;-65
2023/03/08 06:27:21;;;;;;;7.15;5.95;;;0.10;99.90;;;;;;5046546;28;20124;-65
2023/03/08 06:29:47;;;;;;;12.77;6.30;;;0.10;99.90;;;;;;5046695;28;20037;-65
2023/03/08 06:32:13;;;;;;;8.90;6.03;;;0.10;99.90;;;;;;5047420;28;20047;-65
2023/03/08 06:34:39;;;;;;;9.82;6.40;;;0.00;99.90;;;;;;5047083;28;20088;-65
2023/03/08 06:37:04;;;;;;;10.40;5.65;;;0.00;99.90;;;;;;5047045;28;20103;-65
2023/03/08 06:39:30;;;;;;;9.95;6.20;;;0.00;99.90;;;;;;5047258;28;20045;-65
2023/03/08 06:41:56;;;;;;;8.60;5.97;;;0.00;99.90;;;;;;5047305;28;20467;-65
2023/03/08 06:44:22;;;;;;;12.60;6.35;;;0.00;99.90;;;;;;5049528;28;20746;-65
2023/03/08 06:46:48;;;;;;;9.07;5.95;;;-0.10;99.90;;;;;;5050758;28;20044;-66
2023/03/08 06:49:13;;;;;;;9.65;6.03;;;0.00;99.90;;;;;;5050923;28;20090;-65
2023/03/08 06:51:39;;;;;;;10.00;6.80;;;0.10;99.90;;;;;;5050642;28;20044;-65
2023/03/08 06:54:04;;;;;;;10.68;7.20;;;0.00;99.90;;;;;;5050562;28;20690;-65
2023/03/08 06:56:30;;;;;;;12.23;8.23;;;0.00;99.90;;;;;;5050529;28;20387;-66
2023/03/08 06:58:56;;;;;;;12.60;6.93;;;0.00;99.90;;;;;;5050796;28;20049;-65
2023/03/08 07:01:21;;;;;;;16.38;8.25;;;0.00;99.90;;;;;;5050507;28;20039;-66
2023/03/08 07:03:47;;;;;;;12.88;8.07;;;-0.10;99.90;;;;;;5050166;28;20055;-65
2023/03/08 07:06:13;;;;;;;10.73;7.97;;;0.00;99.90;;;;;;5050018;28;20089;-65
2023/03/08 07:08:40;;;;;;;13.88;9.35;;;0.00;99.90;;;;;;5050169;28;20065;-65
2023/03/08 07:11:08;;;;;;;15.05;8.85;;;0.10;99.90;;;;;;5050414;28;20048;-65
2023/03/08 07:13:34;;;;;;;13.40;8.40;;;0.10;99.90;;;;;;5048239;28;20067;-65
2023/03/08 07:16:12;;;;;;;17.58;9.02;;;0.10;99.90;;;;;;5048780;28;20119;-65
2023/03/08 07:18:37;;;;;;;17.52;8.55;;;0.10;99.90;;;;;;5047870;28;20041;-66
2023/03/08 07:21:04;;;;;;;15.15;9.40;;;0.10;99.90;;;;;;5049157;28;20036;-65
2023/03/08 07:23:30;;;;;;;15.32;9.82;;;0.10;99.90;;;;;;5048920;28;20033;-65
2023/03/08 07:25:56;;;;;;;13.77;9.82;;;0.10;99.90;;;;;;5048358;28;20060;-65
2023/03/08 07:28:22;;;;;;;14.88;9.10;;;0.10;99.90;;;;;;5047564;28;20041;-65
2023/03/08 07:30:49;;;;;;;16.23;9.95;;;0.00;99.90;;;;;;5049441;28;20084;-65
2023/03/08 07:33:16;;;;;;;17.48;10.48;;;0.10;99.90;;;;;;5046078;28;20095;-66
2023/03/08 07:35:42;;;;;;;16.63;9.90;;;0.20;99.90;;;;;;5048486;28;20519;-66
2023/03/08 07:38:07;;;;;;;19.15;10.35;;;0.20;99.90;;;;;;5049587;28;20044;-66
2023/03/08 07:40:33;;;;;;;19.27;11.25;;;0.20;99.90;;;;;;5043721;28;20036;-66
2023/03/08 07:42:59;;;;;;;16.13;10.45;;;0.20;99.90;;;;;;5049492;28;20048;-66
2023/03/08 07:45:25;;;;;;;18.05;10.25;;;0.20;99.90;;;;;;5049341;28;20037;-66
2023/03/08 07:47:53;;;;;;;21.15;11.82;;;0.10;99.90;;;;;;5046345;28;20055;-66
2023/03/08 07:50:20;;;;;;;22.85;11.65;;;0.10;99.90;;;;;;5048476;28;20612;-66
2023/03/08 07:52:46;;;;;;;17.38;10.90;;;0.10;99.90;;;;;;5048788;28;20045;-66
2023/03/08 07:55:12;;;;;;;18.70;10.80;;;0.20;99.90;;;;;;5047647;28;20844;-66
2023/03/08 07:57:38;;;;;;;18.08;10.57;;;0.20;99.90;;;;;;5048410;28;20037;-65
2023/03/08 08:00:08;;;;;;;17.10;10.90;;;0.20;99.90;;;;;;5048564;28;20425;-66
2023/03/08 08:02:34;;;;;;;23.92;11.52;;;0.10;99.90;;;;;;5041312;28;20094;-66
2023/03/08 08:05:00;;;;;;;20.05;11.55;;;0.10;99.90;;;;;;5046699;28;20047;-66
2023/03/08 08:07:26;;;;;;;17.05;10.73;;;0.10;99.90;;;;;;5049103;28;20041;-66
2023/03/08 08:09:52;;;;;;;19.40;10.73;;;-0.10;99.90;;;;;;5045980;28;20448;-70
2023/03/08 08:12:18;;;;;;;21.75;10.93;;;0.00;99.90;;;;;;5045387;28;20079;-64
2023/03/08 08:14:43;;;;;;;22.58;12.25;;;0.10;99.90;;;;;;5044924;28;20509;-65
2023/03/08 08:17:09;;;;;;;22.02;11.10;;;0.10;99.90;;;;;;5048357;28;20423;-65
2023/03/08 08:19:36;;;;;;;19.10;11.38;;;0.20;99.90;;;;;;5042540;28;20128;-65
2023/03/08 08:22:02;;;;;;;18.70;11.07;;;0.10;99.90;;;;;;5047966;28;20044;-65
2023/03/08 08:24:29;;;;;;;31.88;13.45;;;0.00;99.90;;;;;;5041824;28;20472;-65
2023/03/08 08:26:55;;;;;;;21.35;11.57;;;0.10;99.90;;;;;;5041960;28;20051;-66
2023/03/08 08:29:21;;;;;;;27.65;13.82;;;0.10;99.90;;;;;;5049296;28;20116;-65
2023/03/08 08:31:47;;;;;;;26.00;15.13;;;0.10;99.90;;;;;;5047312;28;20029;-65
2023/03/08 08:34:12;;;;;;;29.38;13.32;;;0.20;99.90;;;;;;5040317;28;20153;-65
2023/03/08 08:36:38;;;;;;;25.25;12.13;;;0.20;99.90;;;;;;5046325;28;20542;-65
2023/03/08 08:39:04;;;;;;;38.33;14.13;;;0.20;99.90;;;;;;5046971;28;20037;-65
2023/03/08 08:41:31;;;;;;;25.17;13.55;;;0.20;99.90;;;;;;5047868;28;20095;-66
2023/03/08 08:43:58;;;;;;;27.30;14.57;;;0.20;99.90;;;;;;5040292;28;20052;-65
2023/03/08 08:46:26;;;;;;;24.33;13.68;;;0.30;99.90;;;;;;5039786;28;20038;-65
2023/03/08 08:48:53;;;;;;;28.40;14.30;;;0.20;99.90;;;;;;5045366;28;20065;-65
2023/03/08 08:51:19;;;;;;;27.67;15.15;;;0.20;99.90;;;;;;5041415;28;20620;-65
2023/03/08 08:53:45;;;;;;;26.50;14.25;;;0.30;99.90;;;;;;5045480;28;20037;-65
2023/03/08 08:56:16;;;;;;;24.75;12.07;;;0.30;99.90;;;;;;5037868;28;20052;-65
2023/03/08 08:58:42;;;;;;;26.42;12.38;;;0.30;99.90;;;;;;5041725;28;20044;-65
2023/03/08 09:01:23;;;;;;;25.83;12.25;;;0.30;99.90;;;;;;5041267;28;20052;-65
2023/03/08 09:03:49;;;;;;;24.73;12.95;;;0.40;99.90;;;;;;5049416;28;20080;-65
2023/03/08 09:06:18;;;;;;;28.50;14.10;;;0.50;99.90;;;;;;5047307;28;20033;-65
2023/03/08 09:08:47;;;;;;;31.75;14.93;;;0.50;99.90;;;;;;5045997;28;20555;-65
2023/03/08 09:11:12;;;;;;;27.88;13.20;;;0.50;99.90;;;;;;5047177;28;20060;-66
2023/03/08 09:13:40;;;;;;;24.10;12.38;;;0.40;99.90;;;;;;5044740;28;20421;-67
2023/03/08 09:16:06;;;;;;;28.13;12.77;;;0.50;99.90;;;;;;5041761;28;20052;-65
2023/03/08 09:18:32;;;;;;;27.85;14.43;;;0.80;99.90;;;;;;5048128;28;20051;-65
2023/03/08 09:21:00;;;;;;;37.92;15.35;;;0.60;99.90;;;;;;5047507;28;20044;-65
2023/03/08 09:23:27;;;;;;;46.67;17.08;;;0.60;99.90;;;;;;5048375;28;20091;-65
2023/03/08 09:25:57;;;;;;;46.78;18.30;;;0.70;99.90;;;;;;5047770;28;20077;-66
2023/03/08 09:28:23;;;;;;;45.35;17.00;;;0.60;99.90;;;;;;5048136;28;20123;-66
2023/03/08 09:30:48;;;;;;;56.45;19.77;;;0.60;99.90;;;;;;5047545;28;20051;-66
2023/03/08 09:33:14;;;;;;;53.42;19.15;;;0.60;99.90;;;;;;5047857;28;20045;-66
2023/03/08 09:35:39;;;;;;;42.67;16.48;;;0.60;99.90;;;;;;5047836;28;20048;-66
2023/03/08 09:38:05;;;;;;;35.50;15.15;;;0.70;99.90;;;;;;5048013;28;20818;-66
2023/03/08 09:40:38;;;;;;;31.63;13.65;;;0.70;99.90;;;;;;5048003;28;20402;-66
2023/03/08 09:43:05;;;;;;;34.45;14.57;;;0.70;99.90;;;;;;5047761;28;20040;-66
2023/03/08 09:45:32;;;;;;;29.50;13.25;;;0.60;99.90;;;;;;5047427;28;20060;-66
2023/03/08 09:48:05;;;;;;;31.58;14.35;;;0.70;99.90;;;;;;5047895;28;20044;-66
2023/03/08 09:50:46;;;;;;;31.70;13.30;;;0.70;99.90;;;;;;5047913;28;20052;-66
2023/03/08 09:53:27;;;;;;;33.03;13.73;;;0.80;99.90;;;;;;5047842;28;20092;-66
2023/03/08 09:56:05;;;;;;;30.85;14.25;;;0.80;99.90;;;;;;5047406;28;20099;-66
2023/03/08 09:58:39;;;;;;;28.08;14.57;;;0.80;99.90;;;;;;5047933;28;20055;-66
2023/03/08 10:01:37;;;;;;;25.88;11.88;;;0.80;99.90;;;;;;5047913;28;20448;-66
2023/03/08 10:04:16;;;;;;;26.67;12.75;;;0.90;99.90;;;;;;5047848;28;20056;-66
2023/03/08 10:07:12;;;;;;;28.95;14.20;;;1.00;99.90;;;;;;5047563;28;20520;-67
2023/03/08 10:09:43;;;;;;;28.70;13.30;;;0.90;99.90;;;;;;5047874;28;20653;-66
2023/03/08 10:12:22;;;;;;;31.73;13.68;;;0.90;99.90;;;;;;5047509;28;20049;-66
2023/03/08 10:15:01;;;;;;;30.88;14.27;;;1.00;99.90;;;;;;5047471;28;20041;-66
2023/03/08 10:17:42;;;;;;;32.05;13.27;;;1.00;99.90;;;;;;5042662;28;20049;-65
2023/03/08 10:20:20;;;;;;;33.25;14.20;;;1.60;99.90;;;;;;5038724;28;20097;-65
2023/03/08 10:22:52;;;;;;;29.60;13.70;;;1.30;99.90;;;;;;5041660;28;20059;-66
2023/03/08 10:25:22;;;;;;;32.58;13.52;;;1.40;99.90;;;;;;5040624;28;20044;-65
2023/03/08 10:27:51;;;;;;;30.15;13.85;;;1.50;99.90;;;;;;5049295;28;20041;-66
2023/03/08 10:30:19;;;;;;;25.58;12.23;;;1.50;99.90;;;;;;5045952;28;20037;-65
2023/03/08 10:32:47;;;;;;;23.30;12.07;;;1.50;99.90;;;;;;5044786;28;20375;-65
2023/03/08 10:35:13;;;;;;;26.90;12.43;;;1.60;99.90;;;;;;5040386;28;20025;-65
2023/03/08 10:37:39;;;;;;;23.95;11.63;;;1.70;99.90;;;;;;5044444;28;20029;-65
2023/03/08 10:40:17;;;;;;;27.95;12.93;;;1.80;99.90;;;;;;5049740;28;20543;-64
2023/03/08 10:42:56;;;;;;;29.02;13.30;;;1.80;99.90;;;;;;5044836;28;20096;-63
2023/03/08 10:45:23;;;;;;;28.73;13.25;;;1.70;99.90;;;;;;5041257;28;20055;-64
2023/03/08 10:48:00;;;;;;;27.67;12.57;;;1.70;99.90;;;;;;5035511;28;20275;-64
2023/03/08 10:50:34;;;;;;;25.42;12.15;;;1.80;99.90;;;;;;5042259;28;20041;-63
2023/03/08 10:53:15;;;;;;;23.13;12.02;;;1.90;99.90;;;;;;5043989;28;20033;-64
2023/03/08 10:55:49;;;;;;;24.77;12.30;;;2.00;99.90;;;;;;5041315;28;20047;-63
2023/03/08 10:58:34;;;;;;;23.20;11.10;;;2.10;99.90;;;;;;5037229;28;20449;-63
2023/03/08 11:01:38;;;;;;;23.63;11.80;;;2.10;99.90;;;;;;5029801;28;20056;-65
2023/03/08 11:04:17;;;;;;;26.70;12.48;;;2.20;99.90;;;;;;4967393;28;20516;-65
2023/03/08 11:06:43;;;;;;;26.90;12.18;;;2.20;99.90;;;;;;4969197;28;20134;-65
2023/03/08 11:09:27;;;;;;;25.15;11.95;;;2.20;99.90;;;;;;4969520;28;20472;-65
2023/03/08 11:11:55;;;;;;;23.92;10.60;;;2.30;99.90;;;;;;4969272;28;20042;-65
2023/03/08 11:14:21;;;;;;;23.98;11.45;;;2.30;99.90;;;;;;4968897;28;20545;-65
2023/03/08 11:17:17;;;;;;;21.88;10.48;;;2.30;99.90;;;;;;4969353;28;20537;-65
2023/03/08 11:20:19;;;;;;;26.20;11.65;;;2.30;99.90;;;;;;4974497;28;20157;-65
2023/03/08 11:22:55;;;;;;;25.83;11.98;;;2.40;99.90;;;;;;4987381;28;20509;-65
2023/03/08 11:25:41;;;;;;;28.42;12.02;;;2.40;99.90;;;;;;4987080;28;20057;-65
2023/03/08 11:28:17;;;;;;;27.70;12.07;;;2.80;99.90;;;;;;4987560;28;20051;-65
2023/03/08 11:31:13;;;;;;;26.40;12.68;;;2.70;99.90;;;;;;4986410;28;20141;-65
2023/03/08 11:33:51;;;;;;;36.05;13.32;;;2.70;99.90;;;;;;4988735;28;20159;-65
2023/03/08 11:36:45;;;;;;;31.25;13.50;;;2.70;99.90;;;;;;4988362;28;20059;-65
2023/03/08 11:39:35;;;;;;;25.05;11.85;;;2.70;99.90;;;;;;5005809;28;20060;-64
2023/03/08 11:42:21;;;;;;;30.80;12.65;;;2.70;99.90;;;;;;5048972;28;20048;-64
2023/03/08 11:44:50;;;;;;;27.40;12.05;;;2.80;99.90;;;;;;5046807;28;20044;-64
2023/03/08 11:47:37;;;;;;;30.77;12.57;;;2.80;99.90;;;;;;5049062;28;20045;-64
2023/03/08 11:50:05;;;;;;;28.95;13.18;;;2.90;99.90;;;;;;5042204;28;20043;-65
2023/03/08 11:52:36;;;;;;;27.98;13.63;;;3.00;99.90;;;;;;5048493;28;20091;-64
2023/03/08 11:55:21;;;;;;;29.48;11.95;;;2.90;99.90;;;;;;5048434;28;20127;-65
2023/03/08 11:57:53;;;;;;;32.65;13.50;;;3.10;99.90;;;;;;5044164;28;20576;-65
2023/03/08 12:00:34;;;;;;;28.23;11.88;;;3.10;99.90;;;;;;5049358;28;20134;-65
2023/03/08 12:03:15;;;;;;;31.90;12.50;;;3.20;99.90;;;;;;5034189;28;20037;-64
2023/03/08 12:05:54;;;;;;;25.10;11.25;;;3.10;99.90;;;;;;5041952;28;20045;-65
2023/03/08 12:08:27;;;;;;;28.35;13.05;;;4.10;99.90;;;;;;5049621;28;20430;-65
2023/03/08 12:11:09;;;;;;;27.35;12.10;;;4.40;99.90;;;;;;5044743;28;20041;-65
2023/03/08 12:13:44;;;;;;;24.92;10.70;;;4.00;99.90;;;;;;5033867;28;20040;-65
2023/03/08 12:16:12;;;;;;;22.52;11.02;;;3.90;99.90;;;;;;5039413;28;20045;-65
2023/03/08 12:18:58;;;;;;;20.10;9.52;;;3.70;99.90;;;;;;5038997;28;20041;-65
2023/03/08 12:21:36;;;;;;;16.88;9.13;;;3.70;99.90;;;;;;5039697;28;20064;-65
2023/03/08 12:24:02;;;;;;;21.33;10.05;;;3.60;99.90;;;;;;5037598;28;20103;-66
2023/03/08 12:26:34;;;;;;;19.27;8.52;;;3.60;99.90;;;;;;5033826;28;20507;-65
2023/03/08 12:29:05;;;;;;;21.38;9.38;;;3.60;99.90;;;;;;5037661;28;20416;-65
2023/03/08 12:31:37;;;;;;;22.88;9.30;;;3.60;99.90;;;;;;5037850;28;20398;-65
2023/03/08 12:34:31;;;;;;;21.00;9.95;;;3.50;99.90;;;;;;5038547;28;20047;-65
2023/03/08 12:36:57;;;;;;;21.48;10.13;;;3.50;99.90;;;;;;5026878;28;20110;-65
2023/03/08 12:39:31;;;;;;;23.15;10.85;;;3.60;99.90;;;;;;5039159;28;20484;-65
2023/03/08 12:42:15;;;;;;;22.60;10.32;;;3.60;99.90;;;;;;5038049;28;20080;-65
2023/03/08 12:44:41;;;;;;;27.38;11.73;;;3.50;99.90;;;;;;5038477;28;20107;-65
2023/03/08 12:47:13;;;;;;;33.88;10.88;;;3.40;99.90;;;;;;5038057;28;20718;-65
2023/03/08 12:49:45;;;;;;;31.60;12.95;;;3.50;99.90;;;;;;5038452;28;20494;-65
2023/03/08 12:52:17;;;;;;;32.08;12.35;;;3.40;99.90;;;;;;5049032;28;20044;-65
2023/03/08 12:55:07;;;;;;;30.52;12.57;;;3.50;99.90;;;;;;5048774;28;20045;-65
2023/03/08 12:57:41;;;;;;;36.90;12.90;;;3.40;99.90;;;;;;5049146;28;20059;-66